sensor_id;sensor_type;location;lat;lon;timestamp;P1;durP1;ratioP1;P2;durP2;ratioP2
1136;SDS011;557;48.466;7.950;2022-07-19T00:01:38;15.00;;;14.20;;
1136;SDS011;557;48.466;7.950;2022-07-19T00:04:24;14.80;;;14.00;;
1136;SDS011;557;48.466;7.950;2022-07-19T00:07:10;14.80;;;14.00;;
1136;SDS011;557;48.466;7.950;2022-07-19T00:09:57;14.20;;;13.40;;
1136;SDS011;557;48.466;7.950;2022-07-19T00:12:43;15.33;;;14.33;;
1136;SDS011;557;48.466;7.950;2022-07-19T00:15:29;14.60;;;13.70;;
1136;SDS011;557;48.466;7.950;2022-07-19T00:18:15;14.77;;;13.77;;
1136;SDS011;557;48.466;7.950;2022-07-19T00:21:01;14.50;;;13.60;;
1136;SDS011;557;48.466;7.950;2022-07-19T00:23:47;15.07;;;14.17;;
1136;SDS011;557;48.466;7.950;2022-07-19T00:26:34;14.73;;;13.77;;
1136;SDS011;557;48.466;7.950;2022-07-19T00:29:19;14.20;;;13.40;;
1136;SDS011;557;48.466;7.950;2022-07-19T00:32:05;14.33;;;13.53;;
1136;SDS011;557;48.466;7.950;2022-07-19T00:34:51;15.50;;;14.50;;
1136;SDS011;557;48.466;7.950;2022-07-19T00:37:37;14.20;;;13.30;;
1136;SDS011;557;48.466;7.950;2022-07-19T00:40:22;15.00;;;14.10;;
1136;SDS011;557;48.466;7.950;2022-07-19T00:43:11;14.60;;;13.60;;
1136;SDS011;557;48.466;7.950;2022-07-19T00:45:56;15.47;;;14.50;;
1136;SDS011;557;48.466;7.950;2022-07-19T00:48:42;14.30;;;13.30;;
1136;SDS011;557;48.466;7.950;2022-07-19T00:51:28;14.33;;;13.43;;
1136;SDS011;557;48.466;7.950;2022-07-19T00:54:14;15.30;;;14.30;;
1136;SDS011;557;48.466;7.950;2022-07-19T00:57:02;14.33;;;13.53;;
1136;SDS011;557;48.466;7.950;2022-07-19T00:59:50;15.40;;;14.40;;
1136;SDS011;557;48.466;7.950;2022-07-19T01:02:38;14.97;;;14.00;;
1136;SDS011;557;48.466;7.950;2022-07-19T01:05:24;14.60;;;13.70;;
1136;SDS011;557;48.466;7.950;2022-07-19T01:08:10;14.10;;;13.30;;
1136;SDS011;557;48.466;7.950;2022-07-19T01:10:55;15.23;;;14.20;;
1136;SDS011;557;48.466;7.950;2022-07-19T01:13:42;15.13;;;13.80;;
1136;SDS011;557;48.466;7.950;2022-07-19T01:16:29;14.20;;;13.30;;
1136;SDS011;557;48.466;7.950;2022-07-19T01:19:15;14.70;;;13.60;;
1136;SDS011;557;48.466;7.950;2022-07-19T01:22:02;14.00;;;13.20;;
1136;SDS011;557;48.466;7.950;2022-07-19T01:24:48;15.20;;;14.20;;
1136;SDS011;557;48.466;7.950;2022-07-19T01:27:37;14.60;;;13.70;;
1136;SDS011;557;48.466;7.950;2022-07-19T01:30:25;14.10;;;13.20;;
1136;SDS011;557;48.466;7.950;2022-07-19T01:33:13;14.30;;;13.30;;
1136;SDS011;557;48.466;7.950;2022-07-19T01:35:58;14.30;;;13.50;;
1136;SDS011;557;48.466;7.950;2022-07-19T01:38:45;13.80;;;12.90;;
1136;SDS011;557;48.466;7.950;2022-07-19T01:41:31;14.77;;;13.83;;
1136;SDS011;557;48.466;7.950;2022-07-19T01:44:16;14.90;;;14.10;;
1136;SDS011;557;48.466;7.950;2022-07-19T01:47:02;14.70;;;13.70;;
1136;SDS011;557;48.466;7.950;2022-07-19T01:49:47;14.73;;;13.73;;
1136;SDS011;557;48.466;7.950;2022-07-19T01:52:34;14.67;;;13.77;;
1136;SDS011;557;48.466;7.950;2022-07-19T01:55:21;14.17;;;13.33;;
1136;SDS011;557;48.466;7.950;2022-07-19T01:58:07;14.37;;;13.37;;
1136;SDS011;557;48.466;7.950;2022-07-19T02:00:53;14.97;;;14.00;;
1136;SDS011;557;48.466;7.950;2022-07-19T02:03:39;14.43;;;13.60;;
1136;SDS011;557;48.466;7.950;2022-07-19T02:06:25;14.10;;;13.10;;
1136;SDS011;557;48.466;7.950;2022-07-19T02:09:12;14.33;;;13.43;;
1136;SDS011;557;48.466;7.950;2022-07-19T02:11:59;14.63;;;13.63;;
1136;SDS011;557;48.466;7.950;2022-07-19T02:14:44;14.20;;;13.30;;
1136;SDS011;557;48.466;7.950;2022-07-19T02:17:30;14.10;;;13.10;;
1136;SDS011;557;48.466;7.950;2022-07-19T02:20:16;14.23;;;13.00;;
1136;SDS011;557;48.466;7.950;2022-07-19T02:23:01;14.77;;;13.73;;
1136;SDS011;557;48.466;7.950;2022-07-19T02:25:48;13.80;;;12.80;;
1136;SDS011;557;48.466;7.950;2022-07-19T02:28:35;14.70;;;13.80;;
1136;SDS011;557;48.466;7.950;2022-07-19T02:31:21;14.20;;;13.30;;
1136;SDS011;557;48.466;7.950;2022-07-19T02:34:08;14.00;;;13.20;;
1136;SDS011;557;48.466;7.950;2022-07-19T02:36:53;14.33;;;13.47;;
1136;SDS011;557;48.466;7.950;2022-07-19T02:39:40;14.10;;;13.30;;
1136;SDS011;557;48.466;7.950;2022-07-19T02:42:26;13.97;;;13.07;;
1136;SDS011;557;48.466;7.950;2022-07-19T02:45:12;14.40;;;13.50;;
1136;SDS011;557;48.466;7.950;2022-07-19T02:47:58;14.60;;;13.60;;
1136;SDS011;557;48.466;7.950;2022-07-19T02:50:46;13.47;;;12.57;;
1136;SDS011;557;48.466;7.950;2022-07-19T02:53:32;14.10;;;13.20;;
1136;SDS011;557;48.466;7.950;2022-07-19T02:56:17;15.00;;;13.90;;
1136;SDS011;557;48.466;7.950;2022-07-19T02:59:03;13.23;;;12.47;;
1136;SDS011;557;48.466;7.950;2022-07-19T03:01:50;13.43;;;12.70;;
1136;SDS011;557;48.466;7.950;2022-07-19T03:04:36;14.00;;;13.20;;
1136;SDS011;557;48.466;7.950;2022-07-19T03:07:21;13.80;;;13.00;;
1136;SDS011;557;48.466;7.950;2022-07-19T03:10:07;13.70;;;12.80;;
1136;SDS011;557;48.466;7.950;2022-07-19T03:12:54;14.10;;;13.30;;
1136;SDS011;557;48.466;7.950;2022-07-19T03:15:40;14.10;;;13.20;;
1136;SDS011;557;48.466;7.950;2022-07-19T03:18:27;14.77;;;13.77;;
1136;SDS011;557;48.466;7.950;2022-07-19T03:21:12;13.90;;;12.97;;
1136;SDS011;557;48.466;7.950;2022-07-19T03:23:58;13.47;;;12.53;;
1136;SDS011;557;48.466;7.950;2022-07-19T03:26:44;13.80;;;13.00;;
1136;SDS011;557;48.466;7.950;2022-07-19T03:29:29;13.70;;;12.80;;
1136;SDS011;557;48.466;7.950;2022-07-19T03:32:15;13.83;;;13.03;;
1136;SDS011;557;48.466;7.950;2022-07-19T03:35:03;14.30;;;13.30;;
1136;SDS011;557;48.466;7.950;2022-07-19T03:37:49;13.97;;;12.97;;
1136;SDS011;557;48.466;7.950;2022-07-19T03:40:35;15.37;;;14.27;;
1136;SDS011;557;48.466;7.950;2022-07-19T03:43:21;16.60;;;15.10;;
1136;SDS011;557;48.466;7.950;2022-07-19T03:46:07;16.13;;;14.93;;
1136;SDS011;557;48.466;7.950;2022-07-19T03:48:52;15.03;;;14.03;;
1136;SDS011;557;48.466;7.950;2022-07-19T03:51:40;15.93;;;14.80;;
1136;SDS011;557;48.466;7.950;2022-07-19T03:54:25;14.13;;;13.23;;
1136;SDS011;557;48.466;7.950;2022-07-19T03:57:11;15.27;;;14.07;;
1136;SDS011;557;48.466;7.950;2022-07-19T03:59:57;14.77;;;13.37;;
1136;SDS011;557;48.466;7.950;2022-07-19T04:02:43;14.00;;;13.00;;
1136;SDS011;557;48.466;7.950;2022-07-19T04:05:29;14.77;;;13.57;;
1136;SDS011;557;48.466;7.950;2022-07-19T04:08:15;13.10;;;12.07;;
1136;SDS011;557;48.466;7.950;2022-07-19T04:11:02;13.87;;;12.87;;
1136;SDS011;557;48.466;7.950;2022-07-19T04:13:48;13.23;;;12.07;;
1136;SDS011;557;48.466;7.950;2022-07-19T04:16:34;13.37;;;12.47;;
1136;SDS011;557;48.466;7.950;2022-07-19T04:19:20;13.43;;;12.50;;
1136;SDS011;557;48.466;7.950;2022-07-19T04:22:05;13.93;;;12.93;;
1136;SDS011;557;48.466;7.950;2022-07-19T04:24:52;13.50;;;12.40;;
1136;SDS011;557;48.466;7.950;2022-07-19T04:27:38;13.50;;;12.33;;
1136;SDS011;557;48.466;7.950;2022-07-19T04:30:24;12.50;;;11.50;;
1136;SDS011;557;48.466;7.950;2022-07-19T04:33:12;13.03;;;12.07;;
1136;SDS011;557;48.466;7.950;2022-07-19T04:35:58;12.83;;;11.53;;
1136;SDS011;557;48.466;7.950;2022-07-19T04:38:44;11.80;;;11.00;;
1136;SDS011;557;48.466;7.950;2022-07-19T04:41:31;12.57;;;11.67;;
1136;SDS011;557;48.466;7.950;2022-07-19T04:44:16;12.10;;;11.30;;
1136;SDS011;557;48.466;7.950;2022-07-19T04:47:02;12.10;;;11.20;;
1136;SDS011;557;48.466;7.950;2022-07-19T04:49:48;12.13;;;11.23;;
1136;SDS011;557;48.466;7.950;2022-07-19T04:52:34;12.00;;;11.20;;
1136;SDS011;557;48.466;7.950;2022-07-19T04:55:19;11.70;;;10.80;;
1136;SDS011;557;48.466;7.950;2022-07-19T04:58:06;11.53;;;10.73;;
1136;SDS011;557;48.466;7.950;2022-07-19T05:00:52;12.00;;;11.20;;
1136;SDS011;557;48.466;7.950;2022-07-19T05:03:38;12.90;;;12.00;;
1136;SDS011;557;48.466;7.950;2022-07-19T05:06:23;12.43;;;11.63;;
1136;SDS011;557;48.466;7.950;2022-07-19T05:09:09;11.80;;;11.10;;
1136;SDS011;557;48.466;7.950;2022-07-19T05:11:55;12.10;;;11.40;;
1136;SDS011;557;48.466;7.950;2022-07-19T05:14:42;13.00;;;12.20;;
1136;SDS011;557;48.466;7.950;2022-07-19T05:17:28;12.40;;;11.60;;
1136;SDS011;557;48.466;7.950;2022-07-19T05:20:14;13.47;;;12.47;;
1136;SDS011;557;48.466;7.950;2022-07-19T05:23:00;13.63;;;12.63;;
1136;SDS011;557;48.466;7.950;2022-07-19T05:25:46;13.33;;;12.30;;
1136;SDS011;557;48.466;7.950;2022-07-19T05:28:31;12.90;;;12.20;;
1136;SDS011;557;48.466;7.950;2022-07-19T05:31:18;12.93;;;12.10;;
1136;SDS011;557;48.466;7.950;2022-07-19T05:34:04;13.10;;;11.90;;
1136;SDS011;557;48.466;7.950;2022-07-19T05:36:50;13.23;;;12.33;;
1136;SDS011;557;48.466;7.950;2022-07-19T05:39:36;14.17;;;13.00;;
1136;SDS011;557;48.466;7.950;2022-07-19T05:42:21;12.70;;;11.80;;
1136;SDS011;557;48.466;7.950;2022-07-19T05:45:08;13.23;;;12.30;;
1136;SDS011;557;48.466;7.950;2022-07-19T05:47:56;13.70;;;12.67;;
1136;SDS011;557;48.466;7.950;2022-07-19T05:50:42;14.00;;;12.90;;
1136;SDS011;557;48.466;7.950;2022-07-19T05:53:27;12.83;;;12.03;;
1136;SDS011;557;48.466;7.950;2022-07-19T05:56:13;13.10;;;12.40;;
1136;SDS011;557;48.466;7.950;2022-07-19T05:58:59;13.13;;;12.43;;
1136;SDS011;557;48.466;7.950;2022-07-19T06:01:45;14.00;;;12.80;;
1136;SDS011;557;48.466;7.950;2022-07-19T06:04:33;14.67;;;13.77;;
1136;SDS011;557;48.466;7.950;2022-07-19T06:07:18;14.30;;;13.50;;
1136;SDS011;557;48.466;7.950;2022-07-19T06:10:04;13.70;;;13.00;;
1136;SDS011;557;48.466;7.950;2022-07-19T06:12:50;14.20;;;13.20;;
1136;SDS011;557;48.466;7.950;2022-07-19T06:15:36;14.10;;;13.20;;
1136;SDS011;557;48.466;7.950;2022-07-19T06:18:22;13.17;;;12.37;;
1136;SDS011;557;48.466;7.950;2022-07-19T06:21:09;14.03;;;13.03;;
1136;SDS011;557;48.466;7.950;2022-07-19T06:23:56;14.83;;;13.90;;
1136;SDS011;557;48.466;7.950;2022-07-19T06:26:41;14.93;;;13.60;;
1136;SDS011;557;48.466;7.950;2022-07-19T06:29:27;14.37;;;13.23;;
1136;SDS011;557;48.466;7.950;2022-07-19T06:32:12;13.97;;;13.17;;
1136;SDS011;557;48.466;7.950;2022-07-19T06:34:58;13.83;;;12.67;;
1136;SDS011;557;48.466;7.950;2022-07-19T06:37:45;15.17;;;14.10;;
1136;SDS011;557;48.466;7.950;2022-07-19T06:40:31;14.97;;;14.07;;
1136;SDS011;557;48.466;7.950;2022-07-19T06:43:16;14.43;;;13.63;;
1136;SDS011;557;48.466;7.950;2022-07-19T06:46:02;15.30;;;14.40;;
1136;SDS011;557;48.466;7.950;2022-07-19T06:48:48;15.40;;;14.43;;
1136;SDS011;557;48.466;7.950;2022-07-19T06:51:34;14.10;;;13.30;;
1136;SDS011;557;48.466;7.950;2022-07-19T06:54:21;15.90;;;14.80;;
1136;SDS011;557;48.466;7.950;2022-07-19T06:57:07;15.47;;;14.43;;
1136;SDS011;557;48.466;7.950;2022-07-19T06:59:52;14.43;;;13.63;;
1136;SDS011;557;48.466;7.950;2022-07-19T07:02:38;14.23;;;13.50;;
1136;SDS011;557;48.466;7.950;2022-07-19T07:05:25;16.20;;;15.15;;
1136;SDS011;557;48.466;7.950;2022-07-19T07:08:10;16.23;;;15.13;;
1136;SDS011;557;48.466;7.950;2022-07-19T07:10:58;17.00;;;15.70;;
1136;SDS011;557;48.466;7.950;2022-07-19T07:13:44;16.30;;;15.20;;
1136;SDS011;557;48.466;7.950;2022-07-19T07:16:29;17.52;;;16.35;;
1136;SDS011;557;48.466;7.950;2022-07-19T07:19:15;16.73;;;15.73;;
1136;SDS011;557;48.466;7.950;2022-07-19T07:22:01;16.15;;;15.15;;
1136;SDS011;557;48.466;7.950;2022-07-19T07:24:47;16.88;;;15.77;;
1136;SDS011;557;48.466;7.950;2022-07-19T07:27:35;17.77;;;16.38;;
1136;SDS011;557;48.466;7.950;2022-07-19T07:30:22;18.48;;;17.08;;
1136;SDS011;557;48.466;7.950;2022-07-19T07:33:08;18.13;;;17.02;;
1136;SDS011;557;48.466;7.950;2022-07-19T07:35:54;17.88;;;16.40;;
1136;SDS011;557;48.466;7.950;2022-07-19T07:38:39;18.60;;;17.40;;
1136;SDS011;557;48.466;7.950;2022-07-19T07:41:25;17.67;;;16.38;;
1136;SDS011;557;48.466;7.950;2022-07-19T07:44:12;18.00;;;16.65;;
1136;SDS011;557;48.466;7.950;2022-07-19T07:46:58;18.40;;;17.30;;
1136;SDS011;557;48.466;7.950;2022-07-19T07:49:44;18.33;;;17.13;;
1136;SDS011;557;48.466;7.950;2022-07-19T07:52:29;17.60;;;16.30;;
1136;SDS011;557;48.466;7.950;2022-07-19T07:55:15;17.70;;;16.63;;
1136;SDS011;557;48.466;7.950;2022-07-19T07:58:01;17.83;;;16.52;;
1136;SDS011;557;48.466;7.950;2022-07-19T08:00:48;18.85;;;17.58;;
1136;SDS011;557;48.466;7.950;2022-07-19T08:03:34;15.70;;;14.80;;
1136;SDS011;557;48.466;7.950;2022-07-19T08:06:19;18.35;;;17.15;;
1136;SDS011;557;48.466;7.950;2022-07-19T08:09:05;17.73;;;16.13;;
1136;SDS011;557;48.466;7.950;2022-07-19T08:11:51;18.13;;;17.10;;
1136;SDS011;557;48.466;7.950;2022-07-19T08:14:37;18.95;;;17.90;;
1136;SDS011;557;48.466;7.950;2022-07-19T08:17:24;18.50;;;17.30;;
1136;SDS011;557;48.466;7.950;2022-07-19T08:20:10;18.45;;;17.35;;
1136;SDS011;557;48.466;7.950;2022-07-19T08:22:56;19.77;;;18.15;;
1136;SDS011;557;48.466;7.950;2022-07-19T08:25:42;18.75;;;17.55;;
1136;SDS011;557;48.466;7.950;2022-07-19T08:28:27;19.75;;;18.40;;
1136;SDS011;557;48.466;7.950;2022-07-19T08:31:13;18.80;;;17.58;;
1136;SDS011;557;48.466;7.950;2022-07-19T08:34:00;18.92;;;17.65;;
1136;SDS011;557;48.466;7.950;2022-07-19T08:36:46;19.17;;;18.02;;
1136;SDS011;557;48.466;7.950;2022-07-19T08:39:32;19.48;;;18.17;;
1136;SDS011;557;48.466;7.950;2022-07-19T08:42:18;18.95;;;17.85;;
1136;SDS011;557;48.466;7.950;2022-07-19T08:45:06;19.10;;;18.00;;
1136;SDS011;557;48.466;7.950;2022-07-19T08:47:53;17.95;;;16.80;;
1136;SDS011;557;48.466;7.950;2022-07-19T08:50:42;18.13;;;16.92;;
1136;SDS011;557;48.466;7.950;2022-07-19T08:53:29;18.02;;;17.02;;
1136;SDS011;557;48.466;7.950;2022-07-19T08:56:17;18.58;;;17.40;;
1136;SDS011;557;48.466;7.950;2022-07-19T08:59:21;18.00;;;17.00;;
1136;SDS011;557;48.466;7.950;2022-07-19T09:02:07;18.80;;;17.40;;
1136;SDS011;557;48.466;7.950;2022-07-19T09:05:03;18.55;;;17.35;;
1136;SDS011;557;48.466;7.950;2022-07-19T09:08:00;19.10;;;17.60;;
1136;SDS011;557;48.466;7.950;2022-07-19T09:10:50;18.45;;;17.35;;
1136;SDS011;557;48.466;7.950;2022-07-19T09:13:50;18.60;;;17.50;;
1136;SDS011;557;48.466;7.950;2022-07-19T09:16:52;18.92;;;17.88;;
1136;SDS011;557;48.466;7.950;2022-07-19T09:19:45;18.58;;;17.50;;
1136;SDS011;557;48.466;7.950;2022-07-19T09:22:33;19.10;;;17.98;;
1136;SDS011;557;48.466;7.950;2022-07-19T09:25:32;18.60;;;17.40;;
1136;SDS011;557;48.466;7.950;2022-07-19T09:28:22;18.60;;;17.27;;
1136;SDS011;557;48.466;7.950;2022-07-19T09:31:09;17.75;;;16.75;;
1136;SDS011;557;48.466;7.950;2022-07-19T09:33:54;17.75;;;16.75;;
1136;SDS011;557;48.466;7.950;2022-07-19T09:36:40;17.83;;;16.92;;
1136;SDS011;557;48.466;7.950;2022-07-19T09:39:27;17.58;;;16.58;;
1136;SDS011;557;48.466;7.950;2022-07-19T09:42:18;18.35;;;17.30;;
1136;SDS011;557;48.466;7.950;2022-07-19T09:49:06;18.45;;;17.23;;
1136;SDS011;557;48.466;7.950;2022-07-19T09:51:53;18.35;;;17.30;;
1136;SDS011;557;48.466;7.950;2022-07-19T09:54:39;19.95;;;18.23;;
1136;SDS011;557;48.466;7.950;2022-07-19T09:57:26;18.38;;;17.38;;
1136;SDS011;557;48.466;7.950;2022-07-19T10:00:14;18.92;;;17.83;;
1136;SDS011;557;48.466;7.950;2022-07-19T10:07:01;17.58;;;16.67;;
1136;SDS011;557;48.466;7.950;2022-07-19T10:09:47;18.88;;;17.70;;
1136;SDS011;557;48.466;7.950;2022-07-19T10:12:36;18.63;;;17.60;;
1136;SDS011;557;48.466;7.950;2022-07-19T10:15:22;17.17;;;16.02;;
1136;SDS011;557;48.466;7.950;2022-07-19T10:18:10;18.90;;;17.58;;
1136;SDS011;557;48.466;7.950;2022-07-19T10:20:57;18.90;;;17.70;;
1136;SDS011;557;48.466;7.950;2022-07-19T10:23:49;17.35;;;16.38;;
1136;SDS011;557;48.466;7.950;2022-07-19T10:26:36;17.60;;;16.70;;
1136;SDS011;557;48.466;7.950;2022-07-19T10:29:24;18.48;;;16.80;;
1136;SDS011;557;48.466;7.950;2022-07-19T10:32:11;18.23;;;17.05;;
1136;SDS011;557;48.466;7.950;2022-07-19T10:35:13;17.83;;;16.67;;
1136;SDS011;557;48.466;7.950;2022-07-19T10:38:07;17.80;;;16.55;;
1136;SDS011;557;48.466;7.950;2022-07-19T10:40:54;18.58;;;17.58;;
1136;SDS011;557;48.466;7.950;2022-07-19T10:43:45;17.98;;;16.98;;
1136;SDS011;557;48.466;7.950;2022-07-19T10:46:55;17.40;;;16.50;;
1136;SDS011;557;48.466;7.950;2022-07-19T10:49:41;17.90;;;16.90;;
1136;SDS011;557;48.466;7.950;2022-07-19T10:52:31;17.88;;;16.77;;
1136;SDS011;557;48.466;7.950;2022-07-19T10:55:24;18.50;;;17.50;;
1136;SDS011;557;48.466;7.950;2022-07-19T10:58:11;18.50;;;17.50;;
1136;SDS011;557;48.466;7.950;2022-07-19T11:00:57;18.95;;;17.85;;
1136;SDS011;557;48.466;7.950;2022-07-19T11:07:14;18.88;;;17.88;;
1136;SDS011;557;48.466;7.950;2022-07-19T11:10:02;18.30;;;17.33;;
1136;SDS011;557;48.466;7.950;2022-07-19T11:12:48;18.48;;;17.40;;
1136;SDS011;557;48.466;7.950;2022-07-19T11:15:34;19.02;;;17.95;;
1136;SDS011;557;48.466;7.950;2022-07-19T11:18:20;19.20;;;18.10;;
1136;SDS011;557;48.466;7.950;2022-07-19T11:21:07;18.30;;;17.20;;
1136;SDS011;557;48.466;7.950;2022-07-19T11:23:53;17.40;;;16.50;;
1136;SDS011;557;48.466;7.950;2022-07-19T11:26:39;18.88;;;17.67;;
1136;SDS011;557;48.466;7.950;2022-07-19T11:29:25;18.20;;;17.30;;
1136;SDS011;557;48.466;7.950;2022-07-19T11:32:16;18.00;;;17.00;;
1136;SDS011;557;48.466;7.950;2022-07-19T11:35:05;18.50;;;17.40;;
1136;SDS011;557;48.466;7.950;2022-07-19T11:37:53;18.65;;;17.65;;
1136;SDS011;557;48.466;7.950;2022-07-19T11:40:41;17.73;;;16.70;;
1136;SDS011;557;48.466;7.950;2022-07-19T11:43:27;18.00;;;17.00;;
1136;SDS011;557;48.466;7.950;2022-07-19T11:46:15;18.10;;;17.10;;
1136;SDS011;557;48.466;7.950;2022-07-19T11:49:02;19.20;;;17.65;;
1136;SDS011;557;48.466;7.950;2022-07-19T11:51:57;18.50;;;17.50;;
1136;SDS011;557;48.466;7.950;2022-07-19T11:57:45;17.77;;;16.88;;
1136;SDS011;557;48.466;7.950;2022-07-19T12:00:32;18.52;;;17.27;;
1136;SDS011;557;48.466;7.950;2022-07-19T12:03:18;18.52;;;17.20;;
1136;SDS011;557;48.466;7.950;2022-07-19T12:06:06;18.33;;;17.20;;
1136;SDS011;557;48.466;7.950;2022-07-19T12:08:52;17.40;;;16.30;;
1136;SDS011;557;48.466;7.950;2022-07-19T12:11:51;18.23;;;17.10;;
1136;SDS011;557;48.466;7.950;2022-07-19T12:14:37;18.30;;;17.30;;
1136;SDS011;557;48.466;7.950;2022-07-19T12:17:23;18.45;;;17.30;;
1136;SDS011;557;48.466;7.950;2022-07-19T12:20:09;18.13;;;17.13;;
1136;SDS011;557;48.466;7.950;2022-07-19T12:22:55;18.02;;;16.98;;
1136;SDS011;557;48.466;7.950;2022-07-19T12:26:01;18.70;;;17.45;;
1136;SDS011;557;48.466;7.950;2022-07-19T12:28:49;18.83;;;17.83;;
1136;SDS011;557;48.466;7.950;2022-07-19T12:31:42;18.65;;;17.63;;
1136;SDS011;557;48.466;7.950;2022-07-19T12:34:28;18.80;;;17.33;;
1136;SDS011;557;48.466;7.950;2022-07-19T12:37:21;18.80;;;17.58;;
1136;SDS011;557;48.466;7.950;2022-07-19T12:40:09;17.85;;;16.85;;
1136;SDS011;557;48.466;7.950;2022-07-19T12:42:56;18.52;;;17.63;;
1136;SDS011;557;48.466;7.950;2022-07-19T12:45:47;18.83;;;17.83;;
1136;SDS011;557;48.466;7.950;2022-07-19T12:48:33;18.73;;;17.73;;
1136;SDS011;557;48.466;7.950;2022-07-19T12:51:19;18.58;;;17.60;;
1136;SDS011;557;48.466;7.950;2022-07-19T12:54:05;19.35;;;18.25;;
1136;SDS011;557;48.466;7.950;2022-07-19T12:56:50;19.63;;;18.27;;
1136;SDS011;557;48.466;7.950;2022-07-19T12:59:36;19.10;;;18.00;;
1136;SDS011;557;48.466;7.950;2022-07-19T13:02:26;18.85;;;17.85;;
1136;SDS011;557;48.466;7.950;2022-07-19T13:05:12;17.92;;;17.05;;
1136;SDS011;557;48.466;7.950;2022-07-19T13:07:58;19.08;;;18.00;;
1136;SDS011;557;48.466;7.950;2022-07-19T13:10:44;18.85;;;17.85;;
1136;SDS011;557;48.466;7.950;2022-07-19T13:13:31;19.08;;;17.88;;
1136;SDS011;557;48.466;7.950;2022-07-19T13:16:19;18.73;;;17.73;;
1136;SDS011;557;48.466;7.950;2022-07-19T13:19:07;20.27;;;19.20;;
1136;SDS011;557;48.466;7.950;2022-07-19T13:21:53;19.65;;;18.55;;
1136;SDS011;557;48.466;7.950;2022-07-19T13:24:39;19.77;;;18.58;;
1136;SDS011;557;48.466;7.950;2022-07-19T13:27:24;19.00;;;17.90;;
1136;SDS011;557;48.466;7.950;2022-07-19T13:30:10;18.90;;;17.80;;
1136;SDS011;557;48.466;7.950;2022-07-19T13:32:56;19.13;;;18.02;;
1136;SDS011;557;48.466;7.950;2022-07-19T13:35:43;19.17;;;18.08;;
1136;SDS011;557;48.466;7.950;2022-07-19T13:38:29;19.77;;;18.67;;
1136;SDS011;557;48.466;7.950;2022-07-19T13:41:16;19.45;;;18.40;;
1136;SDS011;557;48.466;7.950;2022-07-19T13:44:01;18.38;;;17.38;;
1136;SDS011;557;48.466;7.950;2022-07-19T13:46:47;19.02;;;17.40;;
1136;SDS011;557;48.466;7.950;2022-07-19T13:49:33;19.73;;;18.63;;
1136;SDS011;557;48.466;7.950;2022-07-19T13:52:20;19.52;;;18.40;;
1136;SDS011;557;48.466;7.950;2022-07-19T13:55:06;19.70;;;18.50;;
1136;SDS011;557;48.466;7.950;2022-07-19T13:57:53;19.23;;;18.23;;
1136;SDS011;557;48.466;7.950;2022-07-19T14:00:39;19.67;;;18.58;;
1136;SDS011;557;48.466;7.950;2022-07-19T14:03:29;18.90;;;17.90;;
1136;SDS011;557;48.466;7.950;2022-07-19T14:06:15;18.67;;;17.77;;
1136;SDS011;557;48.466;7.950;2022-07-19T14:09:03;19.40;;;18.30;;
1136;SDS011;557;48.466;7.950;2022-07-19T14:11:49;19.77;;;18.77;;
1136;SDS011;557;48.466;7.950;2022-07-19T14:14:34;19.90;;;18.55;;
1136;SDS011;557;48.466;7.950;2022-07-19T14:17:20;19.58;;;18.48;;
1136;SDS011;557;48.466;7.950;2022-07-19T14:20:06;19.88;;;18.77;;
1136;SDS011;557;48.466;7.950;2022-07-19T14:22:52;18.90;;;17.90;;
1136;SDS011;557;48.466;7.950;2022-07-19T14:25:40;19.02;;;17.92;;
1136;SDS011;557;48.466;7.950;2022-07-19T14:28:26;19.30;;;18.33;;
1136;SDS011;557;48.466;7.950;2022-07-19T14:31:12;19.38;;;18.27;;
1136;SDS011;557;48.466;7.950;2022-07-19T14:34:00;19.20;;;18.10;;
1136;SDS011;557;48.466;7.950;2022-07-19T14:36:45;19.02;;;18.10;;
1136;SDS011;557;48.466;7.950;2022-07-19T14:39:31;19.48;;;18.58;;
1136;SDS011;557;48.466;7.950;2022-07-19T14:42:18;19.98;;;18.70;;
1136;SDS011;557;48.466;7.950;2022-07-19T14:45:05;19.48;;;18.38;;
1136;SDS011;557;48.466;7.950;2022-07-19T14:47:52;18.60;;;17.58;;
1136;SDS011;557;48.466;7.950;2022-07-19T14:50:37;19.58;;;18.23;;
1136;SDS011;557;48.466;7.950;2022-07-19T14:53:23;20.08;;;18.88;;
1136;SDS011;557;48.466;7.950;2022-07-19T14:56:09;19.88;;;18.67;;
1136;SDS011;557;48.466;7.950;2022-07-19T14:58:56;19.73;;;18.52;;
1136;SDS011;557;48.466;7.950;2022-07-19T15:01:46;19.45;;;18.45;;
1136;SDS011;557;48.466;7.950;2022-07-19T15:04:32;19.38;;;18.38;;
1136;SDS011;557;48.466;7.950;2022-07-19T15:07:18;19.23;;;18.15;;
1136;SDS011;557;48.466;7.950;2022-07-19T15:10:04;19.83;;;18.52;;
1136;SDS011;557;48.466;7.950;2022-07-19T15:12:51;18.52;;;17.52;;
1136;SDS011;557;48.466;7.950;2022-07-19T15:15:38;18.70;;;17.65;;
1136;SDS011;557;48.466;7.950;2022-07-19T15:18:24;18.95;;;17.85;;
1136;SDS011;557;48.466;7.950;2022-07-19T15:21:10;18.67;;;17.67;;
1136;SDS011;557;48.466;7.950;2022-07-19T15:23:56;19.10;;;18.00;;
1136;SDS011;557;48.466;7.950;2022-07-19T15:26:42;20.00;;;18.90;;
1136;SDS011;557;48.466;7.950;2022-07-19T15:29:28;19.45;;;18.30;;
1136;SDS011;557;48.466;7.950;2022-07-19T15:32:15;19.55;;;18.65;;
1136;SDS011;557;48.466;7.950;2022-07-19T15:35:01;19.17;;;18.27;;
1136;SDS011;557;48.466;7.950;2022-07-19T15:37:47;19.15;;;18.17;;
1136;SDS011;557;48.466;7.950;2022-07-19T15:40:33;20.35;;;19.17;;
1136;SDS011;557;48.466;7.950;2022-07-19T15:43:19;19.23;;;18.15;;
1136;SDS011;557;48.466;7.950;2022-07-19T15:46:06;20.35;;;19.25;;
1136;SDS011;557;48.466;7.950;2022-07-19T15:48:55;19.73;;;18.63;;
1136;SDS011;557;48.466;7.950;2022-07-19T15:51:41;19.30;;;18.10;;
1136;SDS011;557;48.466;7.950;2022-07-19T15:54:26;20.00;;;18.90;;
1136;SDS011;557;48.466;7.950;2022-07-19T15:57:12;19.25;;;18.20;;
1136;SDS011;557;48.466;7.950;2022-07-19T15:59:58;19.80;;;18.50;;
1136;SDS011;557;48.466;7.950;2022-07-19T16:02:44;19.30;;;18.30;;
1136;SDS011;557;48.466;7.950;2022-07-19T16:05:32;20.08;;;18.88;;
1136;SDS011;557;48.466;7.950;2022-07-19T16:08:18;19.58;;;18.52;;
1136;SDS011;557;48.466;7.950;2022-07-19T16:11:03;19.83;;;18.77;;
1136;SDS011;557;48.466;7.950;2022-07-19T16:13:49;18.27;;;17.30;;
1136;SDS011;557;48.466;7.950;2022-07-19T16:16:35;20.13;;;19.00;;
1136;SDS011;557;48.466;7.950;2022-07-19T16:19:21;20.10;;;18.90;;
1136;SDS011;557;48.466;7.950;2022-07-19T16:22:08;19.52;;;18.52;;
1136;SDS011;557;48.466;7.950;2022-07-19T16:24:53;19.02;;;17.75;;
1136;SDS011;557;48.466;7.950;2022-07-19T16:27:39;19.92;;;18.77;;
1136;SDS011;557;48.466;7.950;2022-07-19T16:30:26;20.02;;;19.02;;
1136;SDS011;557;48.466;7.950;2022-07-19T16:33:12;19.15;;;18.05;;
1136;SDS011;557;48.466;7.950;2022-07-19T16:35:58;19.50;;;18.33;;
1136;SDS011;557;48.466;7.950;2022-07-19T16:38:45;20.90;;;19.75;;
1136;SDS011;557;48.466;7.950;2022-07-19T16:41:31;20.17;;;18.85;;
1136;SDS011;557;48.466;7.950;2022-07-19T16:44:16;21.00;;;19.70;;
1136;SDS011;557;48.466;7.950;2022-07-19T16:47:02;20.20;;;18.90;;
1136;SDS011;557;48.466;7.950;2022-07-19T16:49:49;20.20;;;19.00;;
1136;SDS011;557;48.466;7.950;2022-07-19T16:52:34;20.52;;;19.13;;
1136;SDS011;557;48.466;7.950;2022-07-19T16:55:21;19.27;;;18.27;;
1136;SDS011;557;48.466;7.950;2022-07-19T16:58:07;19.17;;;18.08;;
1136;SDS011;557;48.466;7.950;2022-07-19T17:00:53;18.52;;;17.42;;
1136;SDS011;557;48.466;7.950;2022-07-19T17:03:39;19.13;;;18.02;;
1136;SDS011;557;48.466;7.950;2022-07-19T17:06:25;18.45;;;17.35;;
1136;SDS011;557;48.466;7.950;2022-07-19T17:09:11;19.33;;;18.10;;
1136;SDS011;557;48.466;7.950;2022-07-19T17:11:58;18.85;;;17.85;;
1136;SDS011;557;48.466;7.950;2022-07-19T17:14:47;18.92;;;17.75;;